createdAt,value
2022-10-04T00:02:00.569Z,8.40
2022-10-04T00:04:32.148Z,8.40
2022-10-04T00:07:07.617Z,8.30
2022-10-04T00:09:41.043Z,8.30
2022-10-04T00:12:19.706Z,8.20
2022-10-04T00:14:46.642Z,8.20
2022-10-04T00:17:21.545Z,8.20
2022-10-04T00:19:51.315Z,8.20
2022-10-04T00:22:22.269Z,8.30
2022-10-04T00:25:07.457Z,8.20
2022-10-04T00:27:36.872Z,8.20
2022-10-04T00:30:03.616Z,8.20
2022-10-04T00:33:00.568Z,8.20
2022-10-04T00:35:27.470Z,8.10
2022-10-04T00:38:08.990Z,8.20
2022-10-04T00:40:46.470Z,8.10
2022-10-04T00:43:18.160Z,8.10
2022-10-04T00:45:52.188Z,8.10
2022-10-04T00:48:31.745Z,8.20
2022-10-04T00:51:22.473Z,8.10
2022-10-04T00:54:07.092Z,8.10
2022-10-04T00:56:39.423Z,8.10
2022-10-04T00:59:30.682Z,8.10
2022-10-04T01:02:17.593Z,8.10
2022-10-04T01:04:50.558Z,8.00
2022-10-04T01:07:28.727Z,8.00
2022-10-04T01:10:01.424Z,8.10
2022-10-04T01:12:56.703Z,8.10
2022-10-04T01:15:44.736Z,8.10
2022-10-04T01:18:20.693Z,8.10
2022-10-04T01:21:00.114Z,8.00
2022-10-04T01:23:47.080Z,8.10
2022-10-04T01:26:29.464Z,8.10
2022-10-04T01:29:06.058Z,8.10
2022-10-04T01:31:35.582Z,8.00
2022-10-04T01:34:05.175Z,8.00
2022-10-04T01:36:33.363Z,8.00
2022-10-04T01:39:00.690Z,8.00
2022-10-04T01:41:37.013Z,8.00
2022-10-04T01:44:06.208Z,8.00
2022-10-04T01:46:36.869Z,8.00
2022-10-04T01:49:11.435Z,7.90
2022-10-04T01:51:49.839Z,7.90
2022-10-04T01:54:20.967Z,7.90
2022-10-04T01:57:22.136Z,7.90
2022-10-04T02:00:03.582Z,7.90
2022-10-04T02:02:41.468Z,7.80
2022-10-04T02:05:12.728Z,7.80
2022-10-04T02:07:42.106Z,7.80
2022-10-04T02:10:18.793Z,7.80
2022-10-04T02:12:49.222Z,7.80
2022-10-04T02:15:18.621Z,7.90
2022-10-04T02:17:46.379Z,7.80
2022-10-04T02:20:18.216Z,7.80
2022-10-04T02:22:49.814Z,7.80
2022-10-04T02:25:19.701Z,7.70
2022-10-04T02:27:47.272Z,7.80
2022-10-04T02:30:14.271Z,7.80
2022-10-04T02:32:59.792Z,7.70
2022-10-04T02:35:37.063Z,7.70
2022-10-04T02:38:22.877Z,7.70
2022-10-04T02:41:01.671Z,7.70
2022-10-04T02:43:49.686Z,7.70
2022-10-04T02:46:38.910Z,7.70
2022-10-04T02:49:31.157Z,7.70
2022-10-04T02:52:16.259Z,7.70
2022-10-04T02:54:56.540Z,7.70
2022-10-04T02:57:24.365Z,7.60
2022-10-04T03:00:02.153Z,7.60
2022-10-04T03:02:30.911Z,7.50
2022-10-04T03:05:06.152Z,7.50
2022-10-04T03:07:34.903Z,7.50
2022-10-04T03:10:07.164Z,7.50
2022-10-04T03:12:34.844Z,7.50
2022-10-04T03:15:02.053Z,7.50
2022-10-04T03:17:30.079Z,7.50
2022-10-04T03:19:57.892Z,7.60
2022-10-04T03:22:24.844Z,7.50
2022-10-04T03:24:55.997Z,7.50
2022-10-04T03:27:34.768Z,7.50
2022-10-04T03:30:01.980Z,7.60
2022-10-04T03:32:30.711Z,7.50
2022-10-04T03:35:00.474Z,7.60
2022-10-04T03:37:30.665Z,7.60
2022-10-04T03:39:58.412Z,7.50
2022-10-04T03:42:31.462Z,7.50
2022-10-04T03:45:02.536Z,7.50
2022-10-04T03:47:40.347Z,7.50
2022-10-04T03:50:24.600Z,7.50
2022-10-04T03:52:58.325Z,7.50
2022-10-04T03:55:36.246Z,7.50
2022-10-04T03:58:03.653Z,7.50
2022-10-04T04:00:30.524Z,7.50
2022-10-04T04:03:04.950Z,7.50
2022-10-04T04:05:37.184Z,7.50
2022-10-04T04:08:23.680Z,7.50
2022-10-04T04:10:54.940Z,7.50
2022-10-04T04:13:33.638Z,7.50
2022-10-04T04:16:02.299Z,7.50
2022-10-04T04:18:35.862Z,7.50
2022-10-04T04:21:04.704Z,7.60
2022-10-04T04:23:39.412Z,7.60
2022-10-04T04:26:26.083Z,7.60
2022-10-04T04:29:04.663Z,7.70
2022-10-04T04:31:42.752Z,7.70
2022-10-04T04:34:48.638Z,7.80
2022-10-04T04:37:15.498Z,7.80
2022-10-04T04:39:47.411Z,7.80
2022-10-04T04:42:21.222Z,7.90
2022-10-04T04:44:57.494Z,7.80
2022-10-04T04:47:43.619Z,7.70
2022-10-04T04:50:30.473Z,7.80
2022-10-04T04:53:14.762Z,7.70
2022-10-04T04:56:02.832Z,7.70
2022-10-04T04:58:38.839Z,7.60
2022-10-04T05:01:08.057Z,7.50
2022-10-04T05:03:35.222Z,7.50
2022-10-04T05:06:07.586Z,7.50
2022-10-04T05:08:41.446Z,7.50
2022-10-04T05:11:08.403Z,7.50
2022-10-04T05:13:47.431Z,7.50
2022-10-04T05:16:20.011Z,7.40
2022-10-04T05:18:47.466Z,7.50
2022-10-04T05:21:25.373Z,7.50
2022-10-04T05:23:53.261Z,7.50
2022-10-04T05:26:30.973Z,7.50
2022-10-04T05:29:02.866Z,7.50
2022-10-04T05:31:54.362Z,7.50
2022-10-04T05:34:27.127Z,7.40
2022-10-04T05:37:13.524Z,7.40
2022-10-04T05:39:58.713Z,7.50
2022-10-04T05:42:45.076Z,7.50
2022-10-04T05:45:19.175Z,7.50
2022-10-04T05:47:49.220Z,7.60
2022-10-04T05:50:35.204Z,7.60
2022-10-04T05:53:26.877Z,7.60
2022-10-04T05:55:56.643Z,7.60
2022-10-04T05:58:38.892Z,7.70
2022-10-04T06:01:23.515Z,7.80
2022-10-04T06:04:09.375Z,7.90
2022-10-04T06:06:49.961Z,7.90
2022-10-04T06:09:42.764Z,8.00
2022-10-04T06:12:30.238Z,8.00
2022-10-04T06:15:17.875Z,8.10
2022-10-04T06:18:08.774Z,8.10
2022-10-04T06:20:57.778Z,8.10
2022-10-04T06:23:27.548Z,8.20
2022-10-04T06:26:02.699Z,8.20
2022-10-04T06:28:40.325Z,8.20
2022-10-04T06:31:24.280Z,8.20
2022-10-04T06:34:18.079Z,8.20
2022-10-04T06:36:50.626Z,8.30
2022-10-04T06:39:35.981Z,8.20
2022-10-04T06:42:20.357Z,8.30
2022-10-04T06:45:21.288Z,8.20
2022-10-04T06:48:17.040Z,8.20
2022-10-04T06:50:50.361Z,8.30
2022-10-04T06:53:34.979Z,8.40
2022-10-04T06:56:09.432Z,8.40
2022-10-04T06:59:13.839Z,8.50
2022-10-04T07:01:56.179Z,8.50
2022-10-04T07:05:03.047Z,8.50
2022-10-04T07:07:26.817Z,8.70
2022-10-04T07:10:01.566Z,8.70
2022-10-04T07:12:31.876Z,8.90
2022-10-04T07:15:03.052Z,8.90
2022-10-04T07:17:42.149Z,9.00
2022-10-04T07:20:25.043Z,9.00
2022-10-04T07:23:02.717Z,9.00
2022-10-04T07:25:37.956Z,9.10
2022-10-04T07:28:33.286Z,9.20
2022-10-04T07:31:11.408Z,9.30
2022-10-04T07:33:50.114Z,9.40
2022-10-04T07:36:22.166Z,9.40
2022-10-04T07:38:54.810Z,9.40
2022-10-04T07:41:37.009Z,9.50
2022-10-04T07:44:13.230Z,9.60
2022-10-04T07:46:48.110Z,9.70
2022-10-04T07:49:18.742Z,9.90
2022-10-04T07:52:19.526Z,9.90
2022-10-04T07:55:07.854Z,10.00
2022-10-04T07:57:49.654Z,10.00
2022-10-04T08:00:19.094Z,10.10
2022-10-04T08:02:56.469Z,10.20
2022-10-04T08:05:29.233Z,10.20
2022-10-04T08:08:15.364Z,10.30
2022-10-04T08:11:05.258Z,10.30
2022-10-04T08:14:00.641Z,10.50
2022-10-04T08:16:47.609Z,10.60
2022-10-04T08:19:26.401Z,10.70
2022-10-04T08:22:04.284Z,10.80
2022-10-04T08:24:53.652Z,11.00
2022-10-04T08:28:11.884Z,11.20
2022-10-04T08:31:03.522Z,11.10
2022-10-04T08:33:57.009Z,11.10
2022-10-04T08:36:47.990Z,11.30
2022-10-04T08:40:01.007Z,11.50
2022-10-04T08:42:45.932Z,11.60
2022-10-04T08:45:43.777Z,11.90
2022-10-04T08:48:38.777Z,12.10
2022-10-04T08:51:20.506Z,12.30
2022-10-04T08:53:52.982Z,12.40
2022-10-04T08:56:31.347Z,12.40
2022-10-04T08:59:26.810Z,12.50
2022-10-04T09:02:36.280Z,12.60
2022-10-04T09:05:17.899Z,12.70
2022-10-04T09:07:50.466Z,12.80
2022-10-04T09:10:45.292Z,12.80
2022-10-04T09:13:45.146Z,12.80
2022-10-04T09:16:17.774Z,12.90
2022-10-04T09:18:53.454Z,13.10
2022-10-04T09:21:57.082Z,13.10
2022-10-04T09:25:00.438Z,13.10
2022-10-04T09:27:55.599Z,13.20
2022-10-04T09:30:33.106Z,13.30
2022-10-04T09:33:12.491Z,13.50
2022-10-04T09:36:06.716Z,13.60
2022-10-04T09:39:17.943Z,13.50
2022-10-04T09:42:26.952Z,13.60
2022-10-04T09:45:05.854Z,13.70
2022-10-04T09:47:45.785Z,13.70
2022-10-04T09:50:35.553Z,13.90
2022-10-04T09:53:23.899Z,14.00
2022-10-04T09:56:26.857Z,14.30
2022-10-04T09:59:37.441Z,14.50
2022-10-04T10:02:29.116Z,14.70
2022-10-04T10:05:22.296Z,14.90
2022-10-04T10:08:16.101Z,15.00
2022-10-04T10:11:36.738Z,15.10
2022-10-04T10:14:19.187Z,15.00
2022-10-04T10:17:17.174Z,15.10
2022-10-04T10:20:17.251Z,15.00
2022-10-04T10:23:21.144Z,15.00
2022-10-04T10:26:13.351Z,14.80
2022-10-04T10:29:27.181Z,14.80
2022-10-04T10:32:07.761Z,14.90
2022-10-04T10:35:06.348Z,15.10
2022-10-04T10:37:48.074Z,15.20
2022-10-04T10:40:30.050Z,15.30
2022-10-04T10:43:05.225Z,15.30
2022-10-04T10:45:34.758Z,15.30
2022-10-04T10:48:19.224Z,15.50
2022-10-04T10:51:02.629Z,15.60
2022-10-04T10:53:50.777Z,15.70
2022-10-04T10:56:51.585Z,15.80
2022-10-04T10:59:50.431Z,15.90
2022-10-04T11:02:37.147Z,15.90
2022-10-04T11:05:26.963Z,16.00
2022-10-04T11:08:07.973Z,15.90
2022-10-04T11:10:59.892Z,15.90
2022-10-04T11:13:47.613Z,15.90
2022-10-04T11:16:40.514Z,15.90
2022-10-04T11:19:31.596Z,15.90
2022-10-04T11:22:33.646Z,16.00
2022-10-04T11:25:18.067Z,16.10
2022-10-04T11:28:12.381Z,16.20
2022-10-04T11:31:01.383Z,16.40
2022-10-04T11:33:46.630Z,16.50
2022-10-04T11:36:16.433Z,16.50
2022-10-04T11:39:30.263Z,16.70
2022-10-04T11:42:20.385Z,16.80
2022-10-04T11:45:20.374Z,16.60
2022-10-04T11:47:50.176Z,16.60
2022-10-04T11:50:56.125Z,16.60
2022-10-04T11:53:26.252Z,16.50
2022-10-04T11:56:30.191Z,16.50
2022-10-04T11:59:05.651Z,16.60
2022-10-04T12:01:32.532Z,16.70
2022-10-04T12:04:22.635Z,16.70
2022-10-04T12:07:23.757Z,16.60
2022-10-04T12:10:02.993Z,16.80
2022-10-04T12:12:54.502Z,16.60
2022-10-04T12:15:39.155Z,16.50
2022-10-04T12:18:14.727Z,16.40
2022-10-04T12:21:14.811Z,16.50
2022-10-04T12:23:44.256Z,16.50
2022-10-04T12:26:35.479Z,16.50
2022-10-04T12:29:31.370Z,16.40
2022-10-04T12:32:04.474Z,16.40
2022-10-04T12:34:46.873Z,16.40
2022-10-04T12:37:26.045Z,16.50
2022-10-04T12:39:58.147Z,16.60
2022-10-04T12:42:54.833Z,16.60
2022-10-04T12:45:43.219Z,16.70
2022-10-04T12:48:37.249Z,16.70
2022-10-04T12:51:28.763Z,16.90
2022-10-04T12:53:58.597Z,16.90
2022-10-04T12:56:58.996Z,16.90
2022-10-04T13:00:15.534Z,16.90
2022-10-04T13:02:53.533Z,16.90
2022-10-04T13:05:45.995Z,16.90
2022-10-04T13:08:50.021Z,16.80
2022-10-04T13:11:29.205Z,16.90
2022-10-04T13:14:20.043Z,17.00
2022-10-04T13:19:50.371Z,17.00
2022-10-04T13:22:44.366Z,17.10
2022-10-04T13:25:48.120Z,17.20
2022-10-04T13:28:31.963Z,17.10
2022-10-04T13:31:24.732Z,17.10
2022-10-04T13:34:15.486Z,17.10
2022-10-04T13:37:20.498Z,17.20
2022-10-04T13:40:01.146Z,17.20
2022-10-04T13:43:01.951Z,17.30
2022-10-04T13:45:39.657Z,17.30
2022-10-04T13:48:23.793Z,17.30
2022-10-04T13:51:19.457Z,17.40
2022-10-04T13:54:26.561Z,17.40
2022-10-04T13:57:04.316Z,17.40
2022-10-04T13:59:54.240Z,17.50
2022-10-04T14:02:53.410Z,17.50
2022-10-04T14:05:39.237Z,17.40
2022-10-04T14:08:17.754Z,17.40
2022-10-04T14:10:59.836Z,17.30
2022-10-04T14:13:33.268Z,17.30
2022-10-04T14:16:13.141Z,17.30
2022-10-04T14:18:54.157Z,17.30
2022-10-04T14:21:37.997Z,17.30
2022-10-04T14:24:35.648Z,17.30
2022-10-04T14:27:05.761Z,17.30
2022-10-04T14:29:58.843Z,17.30
2022-10-04T14:33:03.714Z,17.30
2022-10-04T14:35:34.339Z,17.40
2022-10-04T14:38:07.702Z,17.40
2022-10-04T14:40:43.659Z,17.40
2022-10-04T14:43:37.434Z,17.40
2022-10-04T14:46:22.702Z,17.40
2022-10-04T14:49:03.495Z,17.50
2022-10-04T14:51:42.402Z,17.50
2022-10-04T14:54:30.274Z,17.50
2022-10-04T14:57:20.050Z,17.50
2022-10-04T15:00:04.352Z,17.40
2022-10-04T15:02:39.879Z,17.50
2022-10-04T15:05:37.322Z,17.40
2022-10-04T15:08:18.961Z,17.40
2022-10-04T15:11:00.132Z,17.40
2022-10-04T15:13:32.251Z,17.40
2022-10-04T15:16:11.414Z,17.40
2022-10-04T15:18:39.783Z,17.30
2022-10-04T15:21:43.882Z,17.30
2022-10-04T15:24:16.348Z,17.30
2022-10-04T15:27:17.065Z,17.30
2022-10-04T15:29:51.637Z,17.30
2022-10-04T15:32:36.585Z,17.20
2022-10-04T15:35:18.889Z,17.20
2022-10-04T15:38:00.618Z,17.20
2022-10-04T15:40:37.840Z,17.10
2022-10-04T15:43:23.256Z,17.00
2022-10-04T15:46:03.491Z,17.00
2022-10-04T15:48:55.386Z,17.00
2022-10-04T15:51:50.018Z,16.90
2022-10-04T15:54:52.221Z,16.90
2022-10-04T15:57:37.559Z,16.90
2022-10-04T16:00:26.586Z,16.80
2022-10-04T16:03:07.459Z,16.80
2022-10-04T16:05:59.876Z,16.80
2022-10-04T16:08:48.608Z,16.70
2022-10-04T16:11:34.408Z,16.60
2022-10-04T16:14:15.743Z,16.50
2022-10-04T16:17:00.141Z,16.50
2022-10-04T16:20:21.422Z,16.40
2022-10-04T16:23:28.097Z,16.40
2022-10-04T16:26:34.123Z,16.40
2022-10-04T16:29:22.463Z,16.30
2022-10-04T16:32:12.783Z,16.30
2022-10-04T16:35:00.286Z,16.20
2022-10-04T16:37:38.757Z,16.10
2022-10-04T16:40:37.496Z,15.90
2022-10-04T16:43:21.862Z,15.80
2022-10-04T16:46:10.548Z,15.70
2022-10-04T16:49:21.863Z,15.50
2022-10-04T16:52:03.738Z,15.40
2022-10-04T16:54:46.877Z,15.30
2022-10-04T16:57:22.498Z,15.20
2022-10-04T16:59:54.091Z,15.10
2022-10-04T17:02:26.538Z,15.00
2022-10-04T17:05:05.879Z,15.00
2022-10-04T17:08:05.467Z,14.80
2022-10-04T17:11:00.427Z,14.70
2022-10-04T17:13:35.921Z,14.60
2022-10-04T17:16:11.870Z,14.40
2022-10-04T17:19:10.342Z,14.30
2022-10-04T17:21:53.934Z,14.20
2022-10-04T17:24:26.819Z,14.10
2022-10-04T17:26:56.285Z,14.10
2022-10-04T17:29:32.927Z,13.90
2022-10-04T17:32:24.572Z,13.80
2022-10-04T17:35:09.769Z,13.70
2022-10-04T17:38:05.686Z,13.60
2022-10-04T17:40:41.493Z,13.50
2022-10-04T17:43:19.780Z,13.40
2022-10-04T17:45:52.935Z,13.30
2022-10-04T17:48:51.141Z,13.20
2022-10-04T17:51:42.418Z,13.20
2022-10-04T17:54:40.986Z,13.10
2022-10-04T17:57:08.991Z,13.10
2022-10-04T17:59:46.229Z,13.00
2022-10-04T18:02:45.469Z,13.00
2022-10-04T18:05:32.935Z,12.80
2022-10-04T18:08:15.255Z,12.70
2022-10-04T18:10:50.520Z,12.60
2022-10-04T18:13:21.461Z,12.50
2022-10-04T18:16:24.170Z,12.50
2022-10-04T18:18:51.230Z,12.50
2022-10-04T18:21:31.225Z,12.50
2022-10-04T18:24:16.637Z,12.40
2022-10-04T18:27:15.507Z,12.40
2022-10-04T18:29:44.275Z,12.30
2022-10-04T18:32:35.082Z,12.30
2022-10-04T18:35:26.586Z,12.30
2022-10-04T18:37:59.310Z,12.20
2022-10-04T18:40:33.177Z,12.10
2022-10-04T18:43:02.879Z,12.10
2022-10-04T18:45:33.652Z,12.00
2022-10-04T18:48:13.257Z,11.90
2022-10-04T18:50:47.073Z,11.90
2022-10-04T18:53:44.311Z,11.80
2022-10-04T18:56:12.373Z,11.70
2022-10-04T18:59:25.468Z,11.70
2022-10-04T19:02:11.957Z,11.60
2022-10-04T19:05:14.137Z,11.60
2022-10-04T19:07:50.235Z,11.50
2022-10-04T19:10:19.759Z,11.50
2022-10-04T19:13:00.080Z,11.40
2022-10-04T19:15:37.085Z,11.40
2022-10-04T19:18:21.992Z,11.40
2022-10-04T19:21:11.846Z,11.30
2022-10-04T19:24:17.121Z,11.30
2022-10-04T19:26:49.688Z,11.20
2022-10-04T19:29:43.490Z,11.20
2022-10-04T19:32:56.755Z,11.20
2022-10-04T19:35:46.072Z,11.10
2022-10-04T19:38:37.573Z,11.10
2022-10-04T19:41:35.110Z,11.10
2022-10-04T19:44:14.098Z,11.00
2022-10-04T19:46:54.286Z,11.00
2022-10-04T19:49:35.322Z,10.90
2022-10-04T19:52:36.490Z,10.90
2022-10-04T19:55:20.923Z,10.90
2022-10-04T19:57:53.517Z,10.90
2022-10-04T20:00:22.182Z,10.90
2022-10-04T20:02:49.297Z,10.90
2022-10-04T20:05:28.071Z,10.90
2022-10-04T20:08:05.199Z,10.80
2022-10-04T20:10:36.242Z,10.70
2022-10-04T20:13:26.103Z,10.50
2022-10-04T20:15:55.235Z,10.50
2022-10-04T20:18:34.483Z,10.40
2022-10-04T20:21:01.346Z,10.30
2022-10-04T20:23:40.280Z,10.30
2022-10-04T20:26:11.612Z,10.20
2022-10-04T20:28:41.653Z,10.30
2022-10-04T20:31:11.047Z,10.40
2022-10-04T20:33:38.970Z,10.40
2022-10-04T20:36:10.891Z,10.40
2022-10-04T20:39:00.681Z,10.50
2022-10-04T20:41:50.726Z,10.50
2022-10-04T20:44:55.729Z,10.50
2022-10-04T20:47:57.829Z,10.50
2022-10-04T20:50:42.263Z,10.50
2022-10-04T20:53:22.841Z,10.60
2022-10-04T20:55:51.363Z,10.60
2022-10-04T20:58:23.558Z,10.60
2022-10-04T21:00:55.830Z,10.70
2022-10-04T21:03:23.443Z,10.70
2022-10-04T21:06:05.400Z,10.70
2022-10-04T21:08:33.146Z,10.70
2022-10-04T21:11:21.087Z,10.70
2022-10-04T21:13:55.517Z,10.70
2022-10-04T21:16:37.073Z,10.70
2022-10-04T21:19:32.224Z,10.70
2022-10-04T21:22:00.665Z,10.60
2022-10-04T21:24:39.618Z,10.60
2022-10-04T21:27:10.483Z,10.50
2022-10-04T21:29:38.818Z,10.50
2022-10-04T21:32:05.922Z,10.40
2022-10-04T21:34:52.449Z,10.30
2022-10-04T21:37:20.055Z,10.20
2022-10-04T21:39:46.839Z,10.10
2022-10-04T21:42:13.763Z,10.10
2022-10-04T21:44:43.165Z,10.00
2022-10-04T21:47:10.235Z,10.00
2022-10-04T21:49:37.037Z,9.90
2022-10-04T21:52:03.891Z,9.90
2022-10-04T21:54:30.608Z,10.00
2022-10-04T21:56:57.435Z,10.20
2022-10-04T21:59:24.185Z,10.20
2022-10-04T22:01:50.918Z,10.10
2022-10-04T22:04:17.779Z,10.00
2022-10-04T22:06:44.845Z,9.90
2022-10-04T22:09:11.724Z,9.90
2022-10-04T22:11:38.471Z,9.80
2022-10-04T22:14:05.297Z,9.80
2022-10-04T22:16:32.098Z,9.80
2022-10-04T22:18:58.840Z,9.70
2022-10-04T22:21:25.829Z,9.70
2022-10-04T22:23:52.882Z,9.70
2022-10-04T22:26:21.603Z,9.80
2022-10-04T22:28:55.931Z,9.80
2022-10-04T22:31:27.406Z,9.80
2022-10-04T22:33:55.349Z,9.90
2022-10-04T22:36:39.281Z,10.00
2022-10-04T22:39:09.290Z,9.90
2022-10-04T22:41:39.338Z,10.00
2022-10-04T22:44:16.094Z,10.10
2022-10-04T22:46:46.349Z,10.20
2022-10-04T22:49:17.472Z,10.20
2022-10-04T22:51:48.937Z,10.30
2022-10-04T22:54:24.750Z,10.30
2022-10-04T22:56:52.506Z,10.30
2022-10-04T22:59:22.341Z,10.30
2022-10-04T23:01:49.680Z,10.30
2022-10-04T23:04:23.918Z,10.30
2022-10-04T23:06:51.660Z,10.30
2022-10-04T23:09:18.554Z,10.30
2022-10-04T23:11:45.463Z,10.30
2022-10-04T23:14:12.934Z,10.30
2022-10-04T23:16:39.816Z,10.30
2022-10-04T23:19:20.825Z,10.30
2022-10-04T23:21:49.856Z,10.30
2022-10-04T23:24:22.553Z,10.30
2022-10-04T23:26:55.832Z,10.30
2022-10-04T23:29:31.791Z,10.20
2022-10-04T23:31:58.555Z,10.30
2022-10-04T23:34:33.880Z,10.30
2022-10-04T23:37:00.773Z,10.30
2022-10-04T23:39:31.747Z,10.30
2022-10-04T23:41:59.382Z,10.30
2022-10-04T23:44:34.430Z,10.30
2022-10-04T23:47:02.463Z,10.30
2022-10-04T23:49:29.382Z,10.20
2022-10-04T23:52:01.512Z,10.20
2022-10-04T23:54:28.835Z,10.30
2022-10-04T23:56:55.937Z,10.30
2022-10-04T23:59:25.239Z,10.30
